createdAt,value
2016-09-14T00:00:23.812Z,740.72
2016-09-14T00:01:23.805Z,740.64
2016-09-14T00:02:23.789Z,740.67
2016-09-14T00:03:23.783Z,740.65
2016-09-14T00:04:23.780Z,740.67
2016-09-14T00:05:23.773Z,740.67
2016-09-14T00:06:23.765Z,740.66
2016-09-14T00:07:23.758Z,740.64
2016-09-14T00:08:23.744Z,740.66
2016-09-14T00:09:23.737Z,740.7
2016-09-14T00:10:23.728Z,740.66
2016-09-14T00:11:23.722Z,740.71
2016-09-14T00:12:23.714Z,740.69
2016-09-14T00:13:23.707Z,740.71
2016-09-14T00:14:23.700Z,740.69
2016-09-14T00:15:23.699Z,740.72
2016-09-14T00:16:23.691Z,740.67
2016-09-14T00:17:23.684Z,740.67
2016-09-14T00:18:23.672Z,740.66
2016-09-14T00:19:23.664Z,740.62
2016-09-14T00:20:23.663Z,740.63
2016-09-14T00:21:23.650Z,740.63
2016-09-14T00:22:23.642Z,740.62
2016-09-14T00:23:23.641Z,740.6
2016-09-14T00:24:23.627Z,740.6
2016-09-14T00:25:23.620Z,740.55
2016-09-14T00:26:23.618Z,740.59
2016-09-14T00:27:23.605Z,740.58
2016-09-14T00:28:23.604Z,740.6
2016-09-14T00:29:23.591Z,740.62
2016-09-14T00:30:23.588Z,740.6
2016-09-14T00:31:23.582Z,740.59
2016-09-14T00:32:23.575Z,740.63
2016-09-14T00:33:23.561Z,740.61
2016-09-14T00:34:23.552Z,740.62
2016-09-14T00:35:23.553Z,740.63
2016-09-14T00:36:23.545Z,740.59
2016-09-14T00:37:23.537Z,740.61
2016-09-14T00:38:23.523Z,740.56
2016-09-14T00:39:23.523Z,740.57
2016-09-14T00:40:23.516Z,740.61
2016-09-14T00:41:23.505Z,740.61
2016-09-14T00:42:23.500Z,740.59
2016-09-14T00:43:23.487Z,740.57
2016-09-14T00:44:23.479Z,740.6
2016-09-14T00:45:23.478Z,740.6
2016-09-14T00:46:23.463Z,740.58
2016-09-14T00:47:23.457Z,740.57
2016-09-14T00:48:23.449Z,740.57
2016-09-14T00:49:23.448Z,740.56
2016-09-14T00:50:23.433Z,740.53
2016-09-14T00:51:23.433Z,740.58
2016-09-14T00:52:23.419Z,740.57
2016-09-14T00:53:23.417Z,740.57
2016-09-14T00:54:23.410Z,740.6
2016-09-14T00:55:23.396Z,740.55
2016-09-14T00:56:23.394Z,740.57
2016-09-14T00:57:23.386Z,740.54
2016-09-14T00:58:23.379Z,740.57
2016-09-14T00:59:23.371Z,740.55
2016-09-14T01:00:23.363Z,740.57
2016-09-14T01:01:23.356Z,740.59
2016-09-14T01:02:23.342Z,740.6
2016-09-14T01:03:23.340Z,740.58
2016-09-14T01:04:23.327Z,740.56
2016-09-14T01:05:23.326Z,740.57
2016-09-14T01:06:23.318Z,740.59
2016-09-14T01:07:23.319Z,740.56
2016-09-14T01:08:23.305Z,740.55
2016-09-14T01:09:23.298Z,740.59
2016-09-14T01:10:23.282Z,740.6
2016-09-14T01:11:23.282Z,740.58
2016-09-14T01:12:23.268Z,740.56
2016-09-14T01:13:23.269Z,740.56
2016-09-14T01:14:23.254Z,740.61
2016-09-14T01:15:23.253Z,740.54
2016-09-14T01:16:23.239Z,740.58
2016-09-14T01:17:23.238Z,740.56
2016-09-14T01:18:23.224Z,740.51
2016-09-14T01:19:23.224Z,740.51
2016-09-14T01:20:23.219Z,740.5
2016-09-14T01:21:23.202Z,740.5
2016-09-14T01:22:23.200Z,740.53
2016-09-14T01:23:23.194Z,740.49
2016-09-14T01:24:23.179Z,740.5
2016-09-14T01:25:23.179Z,740.5
2016-09-14T01:26:23.164Z,740.54
2016-09-14T01:27:23.165Z,740.51
2016-09-14T01:28:23.149Z,740.51
2016-09-14T01:29:23.141Z,740.53
2016-09-14T01:30:23.134Z,740.53
2016-09-14T01:31:23.134Z,740.53
2016-09-14T01:32:23.119Z,740.53
2016-09-14T01:33:23.118Z,740.52
2016-09-14T01:34:23.104Z,740.55
2016-09-14T01:35:23.104Z,740.53
2016-09-14T01:36:23.094Z,740.53
2016-09-14T01:37:23.088Z,740.51
2016-09-14T01:38:23.230Z,740.51
2016-09-14T01:39:23.066Z,740.49
2016-09-14T01:40:23.064Z,740.5
2016-09-14T01:41:23.054Z,740.5
2016-09-14T01:42:23.049Z,740.5
2016-09-14T01:43:23.034Z,740.48
2016-09-14T01:44:23.027Z,740.49
2016-09-14T01:45:23.020Z,740.48
2016-09-14T01:46:23.013Z,740.45
2016-09-14T01:47:23.005Z,740.47
2016-09-14T01:48:22.998Z,740.48
2016-09-14T01:49:22.991Z,740.47
2016-09-14T01:50:22.982Z,740.49
2016-09-14T01:51:22.983Z,740.48
2016-09-14T01:52:22.968Z,740.46
2016-09-14T01:53:22.968Z,740.43
2016-09-14T01:54:22.954Z,740.46
2016-09-14T01:55:22.953Z,740.46
2016-09-14T01:56:22.940Z,740.45
2016-09-14T01:57:22.931Z,740.43
2016-09-14T01:58:22.931Z,740.43
2016-09-14T01:59:22.923Z,740.41
2016-09-14T02:00:22.917Z,740.44
2016-09-14T02:01:22.908Z,740.42
2016-09-14T02:02:22.902Z,740.41
2016-09-14T02:03:22.894Z,740.41
2016-09-14T02:04:22.887Z,740.38
2016-09-14T02:05:22.871Z,740.41
2016-09-14T02:06:22.872Z,740.41
2016-09-14T02:07:22.857Z,740.35
2016-09-14T02:08:22.857Z,740.35
2016-09-14T02:09:22.842Z,740.36
2016-09-14T02:10:22.841Z,740.36
2016-09-14T02:11:22.827Z,740.36
2016-09-14T02:12:22.820Z,740.37
2016-09-14T02:13:22.818Z,740.35
2016-09-14T02:14:22.805Z,740.33
2016-09-14T02:15:22.798Z,740.32
2016-09-14T02:16:22.791Z,740.29
2016-09-14T02:17:22.783Z,740.34
2016-09-14T02:18:22.776Z,740.32
2016-09-14T02:19:22.771Z,740.28
2016-09-14T02:20:22.768Z,740.3
2016-09-14T02:21:22.754Z,740.34
2016-09-14T02:22:22.754Z,740.3
2016-09-14T02:23:22.746Z,740.27
2016-09-14T02:24:22.739Z,740.3
2016-09-14T02:25:22.726Z,740.27
2016-09-14T02:26:22.726Z,740.23
2016-09-14T02:27:22.716Z,740.24
2016-09-14T02:28:22.702Z,740.2
2016-09-14T02:29:22.698Z,740.24
2016-09-14T02:30:22.688Z,740.22
2016-09-14T02:31:22.686Z,740.25
2016-09-14T02:32:22.672Z,740.23
2016-09-14T02:33:22.664Z,740.22
2016-09-14T02:34:22.663Z,740.26
2016-09-14T02:35:22.656Z,740.22
2016-09-14T02:36:22.646Z,740.24
2016-09-14T02:37:22.642Z,740.25
2016-09-14T02:38:22.634Z,740.26
2016-09-14T02:39:22.627Z,740.27
2016-09-14T02:40:22.620Z,740.26
2016-09-14T02:41:22.605Z,740.27
2016-09-14T02:42:22.606Z,740.25
2016-09-14T02:43:22.598Z,740.26
2016-09-14T02:44:22.584Z,740.27
2016-09-14T02:45:22.584Z,740.26
2016-09-14T02:46:22.576Z,740.29
2016-09-14T02:47:22.562Z,740.28
2016-09-14T02:48:22.556Z,740.3
2016-09-14T02:49:22.545Z,740.3
2016-09-14T02:50:22.546Z,740.3
2016-09-14T02:51:22.538Z,740.32
2016-09-14T02:52:22.530Z,740.29
2016-09-14T02:53:22.515Z,740.3
2016-09-14T02:54:22.515Z,740.34
2016-09-14T02:55:22.501Z,740.35
2016-09-14T02:56:22.493Z,740.29
2016-09-14T02:57:22.491Z,740.3
2016-09-14T02:58:22.485Z,740.31
2016-09-14T02:59:22.471Z,740.29
2016-09-14T03:00:22.470Z,740.29
2016-09-14T03:01:22.462Z,740.29
2016-09-14T03:02:22.461Z,740.28
2016-09-14T03:03:22.441Z,740.24
2016-09-14T03:04:22.438Z,740.26
2016-09-14T03:05:22.432Z,740.22
2016-09-14T03:06:22.425Z,740.27
2016-09-14T03:07:22.410Z,740.27
2016-09-14T03:08:22.402Z,740.26
2016-09-14T03:09:22.395Z,740.26
2016-09-14T03:10:22.395Z,740.3
2016-09-14T03:11:22.381Z,740.26
2016-09-14T03:12:22.372Z,740.21
2016-09-14T03:13:22.371Z,740.23
2016-09-14T03:14:22.363Z,740.22
2016-09-14T03:15:22.355Z,740.24
2016-09-14T03:16:22.341Z,740.25
2016-09-14T03:17:22.340Z,740.22
2016-09-14T03:18:22.332Z,740.23
2016-09-14T03:19:22.324Z,740.21
2016-09-14T03:20:22.311Z,740.22
2016-09-14T03:21:22.304Z,740.23
2016-09-14T03:22:22.303Z,740.25
2016-09-14T03:23:22.288Z,740.19
2016-09-14T03:24:22.288Z,740.23
2016-09-14T03:25:22.272Z,740.27
2016-09-14T03:26:22.265Z,740.21
2016-09-14T03:27:22.265Z,740.21
2016-09-14T03:28:22.258Z,740.21
2016-09-14T03:29:22.243Z,740.23
2016-09-14T03:30:22.235Z,740.21
2016-09-14T03:31:22.229Z,740.21
2016-09-14T03:32:22.222Z,740.23
2016-09-14T03:33:22.213Z,740.19
2016-09-14T03:34:22.212Z,740.19
2016-09-14T03:35:22.205Z,740.18
2016-09-14T03:36:22.197Z,740.2
2016-09-14T03:37:22.190Z,740.2
2016-09-14T03:38:22.183Z,740.16
2016-09-14T03:39:22.175Z,740.2
2016-09-14T03:40:22.159Z,740.21
2016-09-14T03:41:22.160Z,740.2
2016-09-14T03:42:22.152Z,740.21
2016-09-14T03:43:22.137Z,740.2
2016-09-14T03:44:22.130Z,740.16
2016-09-14T03:45:22.128Z,740.17
2016-09-14T03:46:22.121Z,740.18
2016-09-14T03:47:22.106Z,740.21
2016-09-14T03:48:22.098Z,740.2
2016-09-14T03:49:22.092Z,740.19
2016-09-14T03:50:22.091Z,740.22
2016-09-14T03:51:22.076Z,740.21
2016-09-14T03:52:22.068Z,740.21
2016-09-14T03:53:22.063Z,740.16
2016-09-14T03:54:22.054Z,740.16
2016-09-14T03:55:22.046Z,740.17
2016-09-14T03:56:22.046Z,740.12
2016-09-14T03:57:22.039Z,740.13
2016-09-14T03:58:22.030Z,740.12
2016-09-14T03:59:22.017Z,740.09
2016-09-14T04:00:22.009Z,740.13
2016-09-14T04:01:22.002Z,740.12
2016-09-14T04:02:22.002Z,740.12
2016-09-14T04:03:21.987Z,740.16
2016-09-14T04:04:21.986Z,740.1
2016-09-14T04:05:21.979Z,740.09
2016-09-14T04:06:21.971Z,740.12
2016-09-14T04:07:21.956Z,740.11
2016-09-14T04:08:21.956Z,740.09
2016-09-14T04:09:21.947Z,740.1
2016-09-14T04:10:21.934Z,740.05
2016-09-14T04:11:21.926Z,740.09
2016-09-14T04:12:21.919Z,740.07
2016-09-14T04:13:21.918Z,740.09
2016-09-14T04:14:21.903Z,740.09
2016-09-14T04:15:21.902Z,740.06
2016-09-14T04:16:21.890Z,740.1
2016-09-14T04:17:21.888Z,740.11
2016-09-14T04:18:21.881Z,740.09
2016-09-14T04:19:21.874Z,740.09
2016-09-14T04:20:21.866Z,740.08
2016-09-14T04:21:21.859Z,740.08
2016-09-14T04:22:21.844Z,740.07
2016-09-14T04:23:21.844Z,740.11
2016-09-14T04:24:21.835Z,740.09
2016-09-14T04:25:21.829Z,740.06
2016-09-14T04:26:21.820Z,740.07
2016-09-14T04:27:21.812Z,740.08
2016-09-14T04:28:21.805Z,740.12
2016-09-14T04:29:21.797Z,740.08
2016-09-14T04:30:21.790Z,740.11
2016-09-14T04:31:21.781Z,740.12
2016-09-14T04:32:21.774Z,740.13
2016-09-14T04:33:21.766Z,740.13
2016-09-14T04:34:21.754Z,740.13
2016-09-14T04:35:21.751Z,740.12
2016-09-14T04:36:21.737Z,740.13
2016-09-14T04:37:21.730Z,740.12
2016-09-14T04:38:21.722Z,740.15
2016-09-14T04:39:21.721Z,740.12
2016-09-14T04:40:21.714Z,740.12
2016-09-14T04:41:21.707Z,740.16
2016-09-14T04:42:21.691Z,740.16
2016-09-14T04:43:21.691Z,740.14
2016-09-14T04:44:21.685Z,740.13
2016-09-14T04:45:21.672Z,740.15
2016-09-14T04:46:21.669Z,740.15
2016-09-14T04:47:21.657Z,740.15
2016-09-14T04:48:21.655Z,740.12
2016-09-14T04:49:21.647Z,740.14
2016-09-14T04:50:21.641Z,740.15
2016-09-14T04:51:21.626Z,740.19
2016-09-14T04:52:21.626Z,740.2
2016-09-14T04:53:21.617Z,740.15
2016-09-14T04:54:21.603Z,740.17
2016-09-14T04:55:21.599Z,740.21
2016-09-14T04:56:21.597Z,740.18
2016-09-14T04:57:21.588Z,740.19
2016-09-14T04:58:21.574Z,740.19
2016-09-14T04:59:21.573Z,740.17
2016-09-14T05:00:21.559Z,740.18
2016-09-14T05:01:21.558Z,740.18
2016-09-14T05:02:21.544Z,740.19
2016-09-14T05:03:21.543Z,740.14
2016-09-14T05:04:21.529Z,740.18
2016-09-14T05:05:21.522Z,740.13
2016-09-14T05:06:21.522Z,740.16
2016-09-14T05:07:21.506Z,740.15
2016-09-14T05:08:21.507Z,740.13
2016-09-14T05:09:21.492Z,740.15
2016-09-14T05:10:21.486Z,740.13
2016-09-14T05:11:21.478Z,740.1
2016-09-14T05:12:21.471Z,740.15
2016-09-14T05:13:21.473Z,740.11
2016-09-14T05:14:21.457Z,740.1
2016-09-14T05:15:21.449Z,740.13
2016-09-14T05:16:21.444Z,740.13
2016-09-14T05:17:21.443Z,740.13
2016-09-14T05:18:21.429Z,740.12
2016-09-14T05:19:21.427Z,740.15
2016-09-14T05:20:21.415Z,740.14
2016-09-14T05:21:21.414Z,740.11
2016-09-14T05:22:21.406Z,740.11
2016-09-14T05:23:21.400Z,740.14
2016-09-14T05:24:21.393Z,740.14
2016-09-14T05:25:21.378Z,740.12
2016-09-14T05:26:21.372Z,740.16
2016-09-14T05:27:21.366Z,740.17
2016-09-14T05:28:21.365Z,740.15
2016-09-14T05:29:21.353Z,740.18
2016-09-14T05:30:21.345Z,740.17
2016-09-14T05:31:21.344Z,740.17
2016-09-14T05:32:21.331Z,740.17
2016-09-14T05:33:21.323Z,740.17
2016-09-14T05:34:21.324Z,740.18
2016-09-14T05:35:21.309Z,740.18
2016-09-14T05:36:21.305Z,740.17
2016-09-14T05:37:21.303Z,740.19
2016-09-14T05:38:21.297Z,740.18
2016-09-14T05:39:21.282Z,740.19
2016-09-14T05:40:21.284Z,740.19
2016-09-14T05:41:21.277Z,740.19
2016-09-14T05:42:21.270Z,740.2
2016-09-14T05:43:21.263Z,740.22
2016-09-14T05:44:21.249Z,740.2
2016-09-14T05:45:21.249Z,740.19
2016-09-14T05:46:21.238Z,740.16
2016-09-14T05:47:21.238Z,740.14
2016-09-14T05:48:21.231Z,740.17
2016-09-14T05:49:21.224Z,740.15
2016-09-14T05:50:21.222Z,740.16
2016-09-14T05:51:21.212Z,740.2
2016-09-14T05:52:21.199Z,740.18
2016-09-14T05:53:21.193Z,740.17
2016-09-14T05:54:21.188Z,740.2
2016-09-14T05:55:21.186Z,740.19
2016-09-14T05:56:21.180Z,740.18
2016-09-14T05:57:21.175Z,740.18
2016-09-14T05:58:21.168Z,740.17
2016-09-14T05:59:21.162Z,740.18
2016-09-14T06:00:21.148Z,740.19
2016-09-14T06:01:21.153Z,740.17
2016-09-14T06:02:21.143Z,740.2
2016-09-14T06:03:21.138Z,740.2
2016-09-14T06:04:21.126Z,740.19
2016-09-14T06:05:21.121Z,740.17
2016-09-14T06:06:21.120Z,740.15
2016-09-14T06:07:21.108Z,740.2
2016-09-14T06:08:21.103Z,740.15
2016-09-14T06:09:21.103Z,740.18
2016-09-14T06:10:21.097Z,740.16
2016-09-14T06:11:21.091Z,740.19
2016-09-14T06:12:21.086Z,740.16
2016-09-14T06:13:21.079Z,740.16
2016-09-14T06:14:21.067Z,740.15
2016-09-14T06:15:21.063Z,740.17
2016-09-14T06:16:21.063Z,740.19
2016-09-14T06:17:21.051Z,740.17
2016-09-14T06:18:21.046Z,740.15
2016-09-14T06:19:21.047Z,740.14
2016-09-14T06:20:21.042Z,740.17
2016-09-14T06:21:21.028Z,740.18
2016-09-14T06:22:21.030Z,740.2
2016-09-14T06:23:21.025Z,740.19
2016-09-14T06:24:21.019Z,740.2
2016-09-14T06:25:21.006Z,740.19
2016-09-14T06:26:21.005Z,740.16
2016-09-14T06:27:21.003Z,740.17
2016-09-14T06:28:21.003Z,740.17
2016-09-14T06:29:20.992Z,740.19
2016-09-14T06:30:20.987Z,740.2
2016-09-14T06:31:20.982Z,740.2
2016-09-14T06:32:20.976Z,740.15
2016-09-14T06:33:20.970Z,740.19
2016-09-14T06:34:20.966Z,740.2
2016-09-14T06:35:20.952Z,740.17
2016-09-14T06:36:20.948Z,740.18
2016-09-14T06:37:20.951Z,740.17
2016-09-14T06:38:20.946Z,740.18
2016-09-14T06:39:21.241Z,740.17
2016-09-14T06:40:20.929Z,740.14
2016-09-14T06:41:20.925Z,740.15
2016-09-14T06:42:20.927Z,740.18
2016-09-14T06:43:20.923Z,740.17
2016-09-14T06:44:20.912Z,740.2
2016-09-14T06:45:20.915Z,740.23
2016-09-14T06:46:20.910Z,740.2
2016-09-14T06:47:20.906Z,740.21
2016-09-14T06:48:20.904Z,740.22
2016-09-14T06:49:20.892Z,740.21
2016-09-14T06:50:20.889Z,740.22
2016-09-14T06:51:20.883Z,740.23
2016-09-14T06:52:20.880Z,740.23
2016-09-14T06:53:20.883Z,740.26
2016-09-14T06:54:20.872Z,740.28
2016-09-14T06:55:20.876Z,740.29
2016-09-14T06:56:20.866Z,740.28
2016-09-14T06:57:20.867Z,740.29
2016-09-14T06:58:20.864Z,740.33
2016-09-14T06:59:20.860Z,740.33
2016-09-14T07:00:20.849Z,740.36
2016-09-14T07:01:20.852Z,740.37
2016-09-14T07:02:20.849Z,740.34
2016-09-14T07:03:20.839Z,740.35
2016-09-14T07:04:20.843Z,740.34
2016-09-14T07:05:20.831Z,740.38
2016-09-14T07:06:20.828Z,740.38
2016-09-14T07:07:20.824Z,740.35
2016-09-14T07:08:20.827Z,740.32
2016-09-14T07:09:20.823Z,740.35
2016-09-14T07:10:20.821Z,740.34
2016-09-14T07:11:20.811Z,740.35
2016-09-14T07:12:20.813Z,740.38
2016-09-14T07:13:20.803Z,740.36
2016-09-14T07:14:20.800Z,740.38
2016-09-14T07:15:20.797Z,740.37
2016-09-14T07:16:20.800Z,740.4
2016-09-14T07:17:20.796Z,740.39
2016-09-14T07:18:20.793Z,740.37
2016-09-14T07:19:20.781Z,740.37
2016-09-14T07:20:20.779Z,740.39
2016-09-14T07:21:20.782Z,740.38
2016-09-14T07:22:20.771Z,740.39
2016-09-14T07:23:20.773Z,740.4
2016-09-14T07:24:20.767Z,740.43
2016-09-14T07:25:20.767Z,740.4
2016-09-14T07:26:20.757Z,740.39
2016-09-14T07:27:20.754Z,740.42
2016-09-14T07:28:20.757Z,740.44
2016-09-14T07:29:20.754Z,740.48
2016-09-14T07:30:20.750Z,740.48
2016-09-14T07:31:20.748Z,740.48
2016-09-14T07:32:20.744Z,740.47
2016-09-14T07:33:20.735Z,740.51
2016-09-14T07:34:20.738Z,740.48
2016-09-14T07:35:20.735Z,740.5
2016-09-14T07:36:20.725Z,740.47
2016-09-14T07:37:20.721Z,740.45
2016-09-14T07:38:20.725Z,740.45
2016-09-14T07:39:20.716Z,740.49
2016-09-14T07:40:20.713Z,740.53
2016-09-14T07:41:20.717Z,740.53
2016-09-14T07:42:20.714Z,740.56
2016-09-14T07:43:20.705Z,740.53
2016-09-14T07:44:20.701Z,740.57
2016-09-14T07:45:20.705Z,740.6
2016-09-14T07:46:20.701Z,740.58
2016-09-14T07:47:20.699Z,740.56
2016-09-14T07:48:20.695Z,740.55
2016-09-14T07:49:20.684Z,740.55
2016-09-14T07:50:20.689Z,740.55
2016-09-14T07:51:20.679Z,740.56
2016-09-14T07:52:20.677Z,740.52
2016-09-14T07:53:20.680Z,740.56
2016-09-14T07:54:20.670Z,740.55
2016-09-14T07:55:20.667Z,740.56
2016-09-14T07:56:20.664Z,740.51
2016-09-14T07:57:20.668Z,740.49
2016-09-14T07:58:20.665Z,740.54
2016-09-14T07:59:20.661Z,740.59
2016-09-14T08:00:20.658Z,740.56
2016-09-14T08:01:20.657Z,740.55
2016-09-14T08:02:20.646Z,740.5
2016-09-14T08:03:20.650Z,740.55
2016-09-14T08:04:20.647Z,740.55
2016-09-14T08:05:20.644Z,740.5
2016-09-14T08:06:20.641Z,740.54
2016-09-14T08:07:20.631Z,740.52
2016-09-14T08:08:20.636Z,740.61
2016-09-14T08:09:20.632Z,740.56
2016-09-14T08:10:20.624Z,740.59
2016-09-14T08:11:20.626Z,740.61
2016-09-14T08:12:20.624Z,740.62
2016-09-14T08:13:20.621Z,740.6
2016-09-14T08:14:20.616Z,740.64
2016-09-14T08:15:20.606Z,740.64
2016-09-14T08:16:20.618Z,740.63
2016-09-14T08:17:20.609Z,740.63
2016-09-14T08:18:20.605Z,740.6
2016-09-14T08:19:20.602Z,740.62
2016-09-14T08:20:20.599Z,740.65
2016-09-14T08:21:20.595Z,740.67
2016-09-14T08:22:20.591Z,740.64
2016-09-14T08:23:20.589Z,740.68
2016-09-14T08:24:20.585Z,740.65
2016-09-14T08:25:20.576Z,740.62
2016-09-14T08:26:20.572Z,740.6
2016-09-14T08:27:20.570Z,740.62
2016-09-14T08:28:20.572Z,740.68
2016-09-14T08:29:20.561Z,740.65
2016-09-14T08:30:20.564Z,740.65
2016-09-14T08:31:20.553Z,740.63
2016-09-14T08:32:20.548Z,740.69
2016-09-14T08:33:20.544Z,740.62
2016-09-14T08:34:20.541Z,740.7
2016-09-14T08:35:20.537Z,740.67
2016-09-14T08:36:20.533Z,740.63
2016-09-14T08:37:20.535Z,740.64
2016-09-14T08:38:20.524Z,740.62
2016-09-14T08:39:20.522Z,740.62
2016-09-14T08:40:20.516Z,740.65
2016-09-14T08:41:20.519Z,740.69
2016-09-14T08:42:20.515Z,740.62
2016-09-14T08:43:20.501Z,740.68
2016-09-14T08:44:20.498Z,740.66
2016-09-14T08:45:20.500Z,740.67
2016-09-14T08:46:20.496Z,740.67
2016-09-14T08:47:20.490Z,740.67
2016-09-14T08:48:20.486Z,740.68
2016-09-14T08:49:20.481Z,740.69
2016-09-14T08:50:20.470Z,740.65
2016-09-14T08:51:20.472Z,740.67
2016-09-14T08:52:20.462Z,740.67
2016-09-14T08:53:20.456Z,740.74
2016-09-14T08:54:20.462Z,740.67
2016-09-14T08:55:20.447Z,740.73
2016-09-14T08:56:20.448Z,740.67
2016-09-14T08:57:20.438Z,740.73
2016-09-14T08:58:20.438Z,740.7
2016-09-14T08:59:20.428Z,740.76
2016-09-14T09:00:20.421Z,740.74
2016-09-14T09:01:20.425Z,740.75
2016-09-14T09:02:20.425Z,740.69
2016-09-14T09:03:20.415Z,740.69
2016-09-14T09:04:20.403Z,740.73
2016-09-14T09:05:20.397Z,740.72
2016-09-14T09:06:20.393Z,740.72
2016-09-14T09:07:20.389Z,740.77
2016-09-14T09:08:20.386Z,740.78
2016-09-14T09:09:20.386Z,740.77
2016-09-14T09:10:20.375Z,740.76
2016-09-14T09:11:20.371Z,740.8
2016-09-14T09:12:20.373Z,740.74
2016-09-14T09:13:20.361Z,740.78
2016-09-14T09:14:20.364Z,740.83
2016-09-14T09:15:20.358Z,740.8
2016-09-14T09:16:20.358Z,740.79
2016-09-14T09:17:20.343Z,740.81
2016-09-14T09:18:20.346Z,740.75
2016-09-14T09:19:20.341Z,740.78
2016-09-14T09:20:20.335Z,740.81
2016-09-14T09:21:20.330Z,740.78
2016-09-14T09:22:20.326Z,740.8
2016-09-14T09:23:20.325Z,740.8
2016-09-14T09:24:20.309Z,740.78
2016-09-14T09:25:20.312Z,740.78
2016-09-14T09:26:20.301Z,740.84
2016-09-14T09:27:20.297Z,740.81
2016-09-14T09:28:20.298Z,740.83
2016-09-14T09:29:20.287Z,740.83
2016-09-14T09:30:20.291Z,740.8
2016-09-14T09:31:20.286Z,740.84
2016-09-14T09:32:20.282Z,740.78
2016-09-14T09:33:20.279Z,740.83
2016-09-14T09:34:20.267Z,740.87
2016-09-14T09:35:20.263Z,740.83
2016-09-14T09:36:20.265Z,740.85
2016-09-14T09:37:20.261Z,740.88
2016-09-14T09:38:20.255Z,740.86
2016-09-14T09:39:20.244Z,740.9
2016-09-14T09:40:20.238Z,740.86
2016-09-14T09:41:20.242Z,740.82
2016-09-14T09:42:20.230Z,740.81
2016-09-14T09:43:20.232Z,740.85
2016-09-14T09:44:20.221Z,740.83
2016-09-14T09:45:20.221Z,740.85
2016-09-14T09:46:20.210Z,740.85
2016-09-14T09:47:20.213Z,740.82
2016-09-14T09:48:20.201Z,740.88
2016-09-14T09:49:20.202Z,740.9
2016-09-14T09:50:20.190Z,740.86
2016-09-14T09:51:20.193Z,740.84
2016-09-14T09:52:20.188Z,740.9
2016-09-14T09:53:20.183Z,740.93
2016-09-14T09:54:20.172Z,740.87
2016-09-14T09:55:20.174Z,740.9
2016-09-14T09:56:20.161Z,740.91
2016-09-14T09:57:20.156Z,740.87
2016-09-14T09:58:20.159Z,740.9
2016-09-14T09:59:20.153Z,740.92
2016-09-14T10:00:20.142Z,740.92
2016-09-14T10:01:20.142Z,740.95
2016-09-14T10:02:20.138Z,740.89
2016-09-14T10:03:20.132Z,740.88
2016-09-14T10:04:20.120Z,740.94
2016-09-14T10:05:20.115Z,740.9
2016-09-14T10:06:20.118Z,740.92
2016-09-14T10:07:20.104Z,740.87
2016-09-14T10:08:20.114Z,740.94
2016-09-14T10:09:20.096Z,740.95
2016-09-14T10:10:20.094Z,740.95
2016-09-14T10:11:20.106Z,740.97
2016-09-14T10:12:20.088Z,740.9
2016-09-14T10:13:20.088Z,740.92
2016-09-14T10:14:20.080Z,740.93
2016-09-14T10:15:20.074Z,740.96
2016-09-14T10:16:20.063Z,740.97
2016-09-14T10:17:20.060Z,740.91
2016-09-14T10:18:20.053Z,740.92
2016-09-14T10:19:20.057Z,740.92
2016-09-14T10:20:20.046Z,740.97
2016-09-14T10:21:20.040Z,740.93
2016-09-14T10:22:20.035Z,740.9
2016-09-14T10:23:20.037Z,740.93
2016-09-14T10:24:20.026Z,740.94
2016-09-14T10:25:20.022Z,740.95
2016-09-14T10:26:20.016Z,740.98
2016-09-14T10:27:20.017Z,740.92
2016-09-14T10:28:20.013Z,740.94
2016-09-14T10:29:19.999Z,740.98
2016-09-14T10:30:20.003Z,740.92
2016-09-14T10:31:19.998Z,740.91
2016-09-14T10:32:19.986Z,740.89
2016-09-14T10:33:19.981Z,740.96
2016-09-14T10:34:19.975Z,740.95
2016-09-14T10:35:19.970Z,740.91
2016-09-14T10:36:19.979Z,741.04
2016-09-14T10:37:19.968Z,740.97
2016-09-14T10:38:19.963Z,740.98
2016-09-14T10:39:19.953Z,740.98
2016-09-14T10:40:19.946Z,741.02
2016-09-14T10:41:19.949Z,740.9
2016-09-14T10:42:19.937Z,740.92
2016-09-14T10:43:19.939Z,740.9
2016-09-14T10:44:19.933Z,740.91
2016-09-14T10:45:19.921Z,740.85
2016-09-14T10:46:19.923Z,740.8
2016-09-14T10:47:19.916Z,740.9
2016-09-14T10:48:19.912Z,740.83
2016-09-14T10:49:19.906Z,740.85
2016-09-14T10:50:19.895Z,740.91
2016-09-14T10:51:19.887Z,740.92
2016-09-14T10:52:19.884Z,740.92
2016-09-14T10:53:19.878Z,740.9
2016-09-14T10:54:19.872Z,740.9
2016-09-14T10:55:19.864Z,740.88
2016-09-14T10:56:19.867Z,740.86
2016-09-14T10:57:19.861Z,740.87
2016-09-14T10:58:19.848Z,740.92
2016-09-14T10:59:19.842Z,740.94
2016-09-14T11:00:19.844Z,740.91
2016-09-14T11:01:19.831Z,740.91
2016-09-14T11:02:19.825Z,740.93
2016-09-14T11:03:19.819Z,740.87
2016-09-14T11:04:19.820Z,740.88
2016-09-14T11:05:19.808Z,740.91
2016-09-14T11:06:19.802Z,740.93
2016-09-14T11:07:19.804Z,740.88
2016-09-14T11:08:19.792Z,741.03
2016-09-14T11:09:19.786Z,740.98
2016-09-14T11:10:19.782Z,740.86
2016-09-14T11:11:19.781Z,740.89
2016-09-14T11:12:19.772Z,740.99
2016-09-14T11:13:19.772Z,740.95
2016-09-14T11:14:19.760Z,740.85
2016-09-14T11:15:19.755Z,740.99
2016-09-14T11:16:19.753Z,740.91
2016-09-14T11:17:19.753Z,740.95
2016-09-14T11:18:19.748Z,740.97
2016-09-14T11:19:19.737Z,740.99
2016-09-14T11:20:19.738Z,741.04
2016-09-14T11:21:19.735Z,740.9
2016-09-14T11:22:19.730Z,740.89
2016-09-14T11:23:19.726Z,740.89
2016-09-14T11:24:19.720Z,740.87
2016-09-14T11:25:19.711Z,740.88
2016-09-14T11:26:19.704Z,740.92
2016-09-14T11:27:19.705Z,740.9
2016-09-14T11:28:19.698Z,740.88
2016-09-14T11:29:19.695Z,740.98
2016-09-14T11:30:19.690Z,740.98
2016-09-14T11:31:19.676Z,741.01
2016-09-14T11:32:19.671Z,741.02
2016-09-14T11:33:19.673Z,740.9
2016-09-14T11:34:19.668Z,740.82
2016-09-14T11:35:19.663Z,740.86
2016-09-14T11:36:19.657Z,740.87
2016-09-14T11:37:19.652Z,740.88
2016-09-14T11:38:19.647Z,740.82
2016-09-14T11:39:19.643Z,740.87
2016-09-14T11:40:19.638Z,740.86
2016-09-14T11:41:19.627Z,740.97
2016-09-14T11:42:19.628Z,740.85
2016-09-14T11:43:19.616Z,740.86
2016-09-14T11:44:19.612Z,740.88
2016-09-14T11:45:19.608Z,740.9
2016-09-14T11:46:19.609Z,740.92
2016-09-14T11:47:19.605Z,740.89
2016-09-14T11:48:19.593Z,740.93
2016-09-14T11:49:19.588Z,740.98
2016-09-14T11:50:19.583Z,740.96
2016-09-14T11:51:19.579Z,740.95
2016-09-14T11:52:19.574Z,740.95
2016-09-14T11:53:19.568Z,740.94
2016-09-14T11:54:19.570Z,740.87
2016-09-14T11:55:19.565Z,740.96
2016-09-14T11:56:19.553Z,740.79
2016-09-14T11:57:19.555Z,740.81
2016-09-14T11:58:19.550Z,740.83
2016-09-14T11:59:19.538Z,740.92
2016-09-14T12:00:19.541Z,740.87
2016-09-14T12:01:19.528Z,740.83
2016-09-14T12:02:19.530Z,740.9
2016-09-14T12:03:19.526Z,740.78
2016-09-14T12:04:19.521Z,740.79
2016-09-14T12:05:19.515Z,740.84
2016-09-14T12:06:19.511Z,740.87
2016-09-14T12:07:19.506Z,740.89
2016-09-14T12:08:19.500Z,740.78
2016-09-14T12:09:19.495Z,740.89
2016-09-14T12:10:19.490Z,740.81
2016-09-14T12:11:19.485Z,740.86
2016-09-14T12:12:19.480Z,740.89
2016-09-14T12:13:19.467Z,740.87
2016-09-14T12:14:19.464Z,740.73
2016-09-14T12:15:19.464Z,740.74
2016-09-14T12:16:19.459Z,740.71
2016-09-14T12:17:19.447Z,740.71
2016-09-14T12:18:19.442Z,740.68
2016-09-14T12:19:19.436Z,740.7
2016-09-14T12:20:19.437Z,740.84
2016-09-14T12:21:19.427Z,740.78
2016-09-14T12:22:19.419Z,740.89
2016-09-14T12:23:19.422Z,740.78
2016-09-14T12:24:19.417Z,740.7
2016-09-14T12:25:19.406Z,740.65
2016-09-14T12:26:19.400Z,740.76
2016-09-14T12:27:19.394Z,740.7
2016-09-14T12:28:19.397Z,740.72
2016-09-14T12:29:19.392Z,740.61
2016-09-14T12:30:19.386Z,740.57
2016-09-14T12:31:19.380Z,740.71